Durham, NC

1:26 PM EST on February 07, 2016 (GMT -0500)
Fairfield-Sturbridge | | Change Station
CLOSE
Current Station
Personal Weather Station
Location: Durham, NC
Elevation: 289 ft
Nearby Weather Stations

Elev 289 ft 35.88 °N, 78.93 °W | Updated 4 minutes ago

Overcast
Overcast
45.7 °F
Feels Like 44 °F
N
3.4
Wind Variable Wind from North

Today
High -- | Low -- °F
--% Chance of Precip.
Yesterday
High -- | Low -- °F
Precip. -- in
Pressure 30.00 in
Visibility 10.0 miles
Clouds Overcast 8500 ft
Windchill 44 °F
Dew Point 26 °F
Humidity 46%
Rainfall Not available.
Snow Depth Not available.
7:11 AM 5:48 PM
Waning Crescent, 1% visible
METAR KRDU 071751Z 03010KT 10SM OVC085 05/M06 A3000 RMK AO2 SLP159 T00501056 10050 20028 58024 $
Pressure 30.00 in
Visibility 10.0 miles
Clouds Overcast 8500 ft
Windchill 44 °F
Dew Point 26 °F
Humidity 46%
Rainfall Not available.
Snow Depth Not available.
7:11 AM 5:48 PM
Waning Crescent, 1% visible
METAR KRDU 071751Z 03010KT 10SM OVC085 05/M06 A3000 RMK AO2 SLP159 T00501056 10050 20028 58024 $

10-Day Weather Forecast

Almanac

Astronomy

Feb. 07, 2016 Rise Set
Actual Time
Civil Twilight
Nautical Twilight
Astronomical Twilight
Moon
Length of Visible Light
Length of Day
Tomorrow will be .
, % of the Moon is Illuminated

Today's Extremes

State Highs State Lows

Community

WunderPhotos

Upload Photos

1,891,276 photos uploaded!

WunderBlog® & News

Nearby

Air Quality

  Air Quality AQ Index Pollutant
Not available.

Snow Depth

Station Depth Elevation

Earthquake Activity

City Distance Mag. Time & Date
Minimum magnitude displayed is 2.5.

Coastal Water Temperatures

Place Temperature

Stations

Nearby Weather Stations

Station Location Temp. Windchill Dew Point Humidity Wind Precip. Elev Updated Type
                   

Watches & Warnings

There are currently no watches in effect.